Humidity-temperature Sensor

Selected Measurement Type: Relative Humidity

 
Relative Humidity [%]     6 entries per hour
Showing data from 3/24/2015 (00:00:00 Z) to 3/23/2015 (00:01:00 Z)
Previous Next [ Day | 3-Days | 7-Days ]
First Last
Prev [ Day | 3-Days | 7-Days ] Next
First Last

Start Time:     :
End Time:     :     
Time (in GMT) :00 :50 :40 :30 :20 :10
Previous Next [ Day | 3-Days | 7-Days ]
First Last
Prev [ Day | 3-Days | 7-Days ] Next
First Last


123 => good data
MM => data is determined as missing
-- => data not received/configured
Back to Top Back to Top
3/24/2015 00:00 to 23:10 81.24 81.04 81.70 80.58 80.74 81.68
3/23/2015 23:00 to 22:10 -- -- -- -- -- --
3/23/2015 22:00 to 21:10 80.54 80.68 81.43 82.07 81.04 80.35
3/23/2015 21:00 to 20:10 82.05 82.86 83.40 81.60 81.95 80.66
3/23/2015 20:00 to 19:10 80.83 80.89 81.33 81.35 81.95 81.14
3/23/2015 19:00 to 18:10 82.57 82.55 81.82 81.12 81.89 80.91
3/23/2015 18:00 to 17:10 79.89 80.87 80.27 80.54 80.99 80.45
3/23/2015 17:00 to 16:10 81.76 81.55 81.49 80.39 81.76 81.60
3/23/2015 16:00 to 15:10 81.68 81.82 82.10 81.89 81.35 82.66
3/23/2015 15:00 to 14:10 85.07 82.07 82.61 83.80 85.03 84.07
3/23/2015 14:00 to 13:10 84.59 84.67 83.32 83.57 84.84 83.68
3/23/2015 13:00 to 12:10 84.17 85.05 85.34 84.94 86.27 86.59
3/23/2015 12:00 to 11:10 85.88 87.98 89.35 89.10 90.10 88.54
3/23/2015 11:00 to 10:10 87.42 86.86 86.50 86.07 86.02 86.32
3/23/2015 10:00 to 9:10 90.81 93.51 91.53 85.23 83.51 84.32
3/23/2015 09:00 to 8:10 84.67 85.92 86.04 86.23 86.86 88.39
3/23/2015 08:00 to 7:10 84.38 83.65 82.41 82.28 82.05 82.97
3/23/2015 07:00 to 6:10 83.70 82.16 82.55 81.78 81.45 80.37
3/23/2015 06:00 to 5:10 81.35 81.10 81.89 81.68 81.78 81.24
3/23/2015 05:00 to 4:10 81.64 81.68 80.83 80.79 81.62 81.72
3/23/2015 04:00 to 3:10 81.51 81.16 80.33 80.89 81.89 81.80
3/23/2015 03:00 to 2:10 83.88 83.51 83.26 83.20 83.36 81.31
3/23/2015 02:00 to 1:10 80.39 79.77 80.16 79.68 78.94 79.06
3/23/2015 01:00 to 0:10 80.45 80.41 80.31 80.16 79.89 80.00